createdAt,value
2022-10-17T00:03:58.949Z,9.48
2022-10-17T00:08:57.810Z,9.46
2022-10-17T00:13:57.228Z,9.51
2022-10-17T00:18:56.192Z,9.37
2022-10-17T00:23:58.025Z,9.57
2022-10-17T00:28:59.970Z,9.28
2022-10-17T00:33:58.508Z,9.15
2022-10-17T00:39:02.218Z,9.21
2022-10-17T00:44:25.300Z,9.41
2022-10-17T00:49:52.322Z,8.87
2022-10-17T00:55:08.900Z,8.89
2022-10-17T01:00:34.544Z,8.59
2022-10-17T01:05:58.721Z,8.77
2022-10-17T01:11:29.901Z,8.98
2022-10-17T01:17:00.812Z,8.75
2022-10-17T01:22:45.483Z,8.90
2022-10-17T01:28:04.077Z,8.39
2022-10-17T01:33:14.322Z,8.52
2022-10-17T01:38:33.635Z,8.44
2022-10-17T01:43:56.628Z,8.55
2022-10-17T01:48:57.013Z,8.56
2022-10-17T01:54:17.850Z,8.72
2022-10-17T01:59:30.655Z,8.08
2022-10-17T02:04:29.159Z,7.91
2022-10-17T02:09:30.568Z,8.00
2022-10-17T02:14:44.216Z,8.38
2022-10-17T02:20:05.612Z,8.65
2022-10-17T02:25:14.448Z,8.61
2022-10-17T02:30:16.879Z,8.46
2022-10-17T02:35:16.053Z,8.33
2022-10-17T02:40:15.838Z,8.17
2022-10-17T02:45:14.497Z,8.20
2022-10-17T02:50:13.676Z,8.01
2022-10-17T02:55:28.320Z,8.19
2022-10-17T03:00:28.557Z,8.40
2022-10-17T03:05:29.766Z,7.89
2022-10-17T03:10:28.346Z,8.03
2022-10-17T03:15:29.573Z,7.80
2022-10-17T03:20:28.265Z,7.84
2022-10-17T03:25:26.684Z,7.90
2022-10-17T03:30:30.530Z,7.88
2022-10-17T03:35:31.160Z,7.96
2022-10-17T03:40:37.108Z,7.70
2022-10-17T03:45:39.031Z,7.65
2022-10-17T03:50:38.933Z,7.65
2022-10-17T03:55:39.200Z,7.62
2022-10-17T04:00:43.237Z,7.45
2022-10-17T04:05:41.078Z,7.72
2022-10-17T04:10:42.480Z,7.42
2022-10-17T04:15:55.550Z,7.33
2022-10-17T04:20:54.225Z,7.35
2022-10-17T04:25:59.318Z,7.34
2022-10-17T04:31:05.073Z,7.19
2022-10-17T04:36:16.003Z,7.45
2022-10-17T04:41:16.420Z,7.04
2022-10-17T04:46:16.428Z,6.96
2022-10-17T04:51:26.505Z,7.36
2022-10-17T04:56:45.267Z,6.98
2022-10-17T05:01:43.913Z,7.04
2022-10-17T05:06:42.507Z,7.12
2022-10-17T05:12:13.419Z,7.37
2022-10-17T05:17:14.958Z,7.51
2022-10-17T05:22:14.607Z,7.26
2022-10-17T05:27:15.022Z,7.60
2022-10-17T05:32:15.863Z,7.44
2022-10-17T05:37:16.846Z,7.36
2022-10-17T05:42:28.432Z,7.69
2022-10-17T05:47:32.370Z,7.43
2022-10-17T05:52:33.505Z,7.87
2022-10-17T05:58:03.048Z,7.81
2022-10-17T06:03:16.819Z,7.99
2022-10-17T06:08:17.305Z,8.23
2022-10-17T06:13:17.099Z,8.33
2022-10-17T06:18:19.311Z,8.35
2022-10-17T06:23:19.201Z,8.52
2022-10-17T06:28:32.676Z,8.35
2022-10-17T06:33:33.834Z,8.54
2022-10-17T06:38:37.130Z,8.84
2022-10-17T06:43:42.458Z,8.82
2022-10-17T06:49:17.405Z,9.23
2022-10-17T06:54:35.022Z,9.05
2022-10-17T06:59:58.790Z,9.52
2022-10-17T07:05:09.224Z,9.13
2022-10-17T07:10:12.234Z,8.87
2022-10-17T07:15:14.170Z,9.05
2022-10-17T07:20:15.090Z,9.63
2022-10-17T07:25:13.170Z,9.78
2022-10-17T07:30:20.787Z,9.97
2022-10-17T07:35:25.752Z,10.00
2022-10-17T07:40:28.377Z,10.17
2022-10-17T07:45:27.978Z,10.14
2022-10-17T07:50:27.891Z,10.70
2022-10-17T07:55:29.017Z,10.76
2022-10-17T08:00:30.423Z,11.15
2022-10-17T08:05:33.345Z,11.14
2022-10-17T08:10:32.398Z,11.53
2022-10-17T08:15:32.341Z,11.49
2022-10-17T08:20:33.445Z,11.92
2022-10-17T08:25:35.246Z,12.31
2022-10-17T08:30:35.385Z,12.28
2022-10-17T08:35:34.592Z,12.26
2022-10-17T08:40:36.740Z,12.60
2022-10-17T08:45:47.493Z,12.81
2022-10-17T08:50:51.170Z,13.25
2022-10-17T08:55:53.670Z,13.23
2022-10-17T09:00:59.901Z,13.42
2022-10-17T09:06:22.879Z,13.59
2022-10-17T09:11:39.842Z,14.17
2022-10-17T09:17:03.083Z,14.35
2022-10-17T09:22:15.460Z,14.20
2022-10-17T09:27:35.151Z,14.44
2022-10-17T09:32:44.224Z,14.38
2022-10-17T09:37:42.752Z,14.72
2022-10-17T09:42:47.453Z,14.79
2022-10-17T09:48:09.273Z,14.96
2022-10-17T09:53:42.010Z,14.85
2022-10-17T09:58:46.499Z,15.47
2022-10-17T10:03:45.837Z,15.27
2022-10-17T10:08:55.471Z,15.53
2022-10-17T10:13:55.065Z,15.83
2022-10-17T10:18:56.150Z,15.56
2022-10-17T10:24:30.326Z,15.95
2022-10-17T10:29:41.842Z,16.05
2022-10-17T10:34:51.100Z,15.96
2022-10-17T10:40:04.034Z,15.87
2022-10-17T10:50:47.535Z,16.35
2022-10-17T10:55:55.229Z,16.23
2022-10-17T11:00:54.695Z,16.13
2022-10-17T11:06:23.962Z,16.58
2022-10-17T11:11:39.426Z,16.78
2022-10-17T11:17:08.956Z,16.73
2022-10-17T11:22:17.483Z,17.10
2022-10-17T11:27:15.293Z,16.89
2022-10-17T11:32:23.633Z,16.81
2022-10-17T11:37:25.998Z,16.96
2022-10-17T11:42:31.163Z,16.87
2022-10-17T11:47:38.203Z,17.14
2022-10-17T11:52:55.462Z,17.34
2022-10-17T11:58:09.651Z,17.45
2022-10-17T12:03:46.100Z,17.63
2022-10-17T12:08:52.546Z,17.49
2022-10-17T12:13:57.227Z,17.57
2022-10-17T12:19:03.797Z,17.87
2022-10-17T12:24:02.147Z,17.55
2022-10-17T12:29:00.603Z,17.59
2022-10-17T12:34:19.800Z,17.47
2022-10-17T12:39:20.435Z,17.89
2022-10-17T12:44:21.895Z,18.06
2022-10-17T12:49:22.374Z,18.24
2022-10-17T12:54:26.080Z,18.08
2022-10-17T12:59:29.061Z,17.85
2022-10-17T13:04:27.308Z,18.25
2022-10-17T13:09:30.805Z,18.32
2022-10-17T13:14:31.311Z,18.10
2022-10-17T13:19:44.241Z,18.38
2022-10-17T13:24:44.038Z,18.46
2022-10-17T13:29:44.836Z,18.15
2022-10-17T13:34:45.041Z,18.38
2022-10-17T13:40:00.320Z,18.51
2022-10-17T13:45:11.485Z,18.63
2022-10-17T13:50:43.060Z,18.77
2022-10-17T13:56:26.230Z,18.57
2022-10-17T14:01:24.710Z,18.31
2022-10-17T14:06:26.386Z,18.42
2022-10-17T14:11:38.508Z,18.61
2022-10-17T14:16:41.359Z,18.50
2022-10-17T14:21:44.506Z,18.60
2022-10-17T14:26:51.045Z,18.44
2022-10-17T14:32:04.732Z,18.47
2022-10-17T14:37:14.018Z,18.02
2022-10-17T14:42:25.453Z,17.88
2022-10-17T14:47:43.264Z,17.61
2022-10-17T14:53:24.680Z,17.38
2022-10-17T14:58:32.332Z,17.40
2022-10-17T15:03:33.600Z,17.17
2022-10-17T15:08:34.455Z,17.19
2022-10-17T15:13:39.223Z,16.75
2022-10-17T15:18:48.960Z,16.57
2022-10-17T15:23:52.869Z,16.45
2022-10-17T15:28:51.545Z,16.49
2022-10-17T15:34:05.702Z,16.28
2022-10-17T15:39:05.554Z,15.79
2022-10-17T15:44:06.786Z,15.65
2022-10-17T15:49:15.267Z,15.51
2022-10-17T15:54:15.867Z,15.62
2022-10-17T15:59:24.525Z,15.53
2022-10-17T16:04:28.487Z,15.30
2022-10-17T16:09:31.216Z,15.38
2022-10-17T16:14:34.889Z,15.12
2022-10-17T16:19:36.260Z,14.92
2022-10-17T16:24:39.091Z,14.80
2022-10-17T16:29:47.648Z,14.68
2022-10-17T16:34:48.895Z,14.69
2022-10-17T16:40:01.617Z,14.64
2022-10-17T16:45:52.708Z,14.79
2022-10-17T16:50:56.374Z,14.40
2022-10-17T16:56:10.128Z,14.29
2022-10-17T17:01:21.959Z,14.07
2022-10-17T17:11:51.924Z,13.90
2022-10-17T17:16:59.917Z,14.07
2022-10-17T17:22:05.608Z,14.04
2022-10-17T17:27:33.079Z,14.00
2022-10-17T17:38:37.359Z,13.78
2022-10-17T17:43:37.862Z,13.82
2022-10-17T17:48:44.608Z,13.49
2022-10-17T17:54:39.992Z,13.60
2022-10-17T17:59:50.708Z,13.23
2022-10-17T18:05:17.177Z,13.18
2022-10-17T18:10:33.910Z,13.01
2022-10-17T18:15:36.232Z,13.03
2022-10-17T18:20:51.392Z,12.88
2022-10-17T18:26:02.597Z,12.90
2022-10-17T18:31:46.038Z,12.77
2022-10-17T18:36:48.723Z,12.59
2022-10-17T18:42:02.304Z,12.31
2022-10-17T18:47:15.341Z,12.44
2022-10-17T18:52:25.723Z,12.34
2022-10-17T18:57:27.886Z,12.00
2022-10-17T19:02:32.137Z,12.16
2022-10-17T19:07:37.182Z,12.01
2022-10-17T19:12:37.647Z,12.11
2022-10-17T19:17:36.776Z,11.96
2022-10-17T19:22:37.210Z,11.84
2022-10-17T19:27:42.041Z,11.85
2022-10-17T19:32:44.428Z,11.81
2022-10-17T19:37:48.365Z,11.73
2022-10-17T19:42:48.389Z,11.36
2022-10-17T19:47:54.781Z,11.49
2022-10-17T19:53:00.162Z,11.59
2022-10-17T19:58:01.491Z,11.14
2022-10-17T20:03:20.561Z,11.44
2022-10-17T20:08:29.614Z,11.53
2022-10-17T20:13:29.995Z,11.24
2022-10-17T20:18:32.299Z,11.13
2022-10-17T20:23:30.323Z,11.24
2022-10-17T20:28:33.753Z,10.81
2022-10-17T20:33:32.188Z,11.09
2022-10-17T20:38:30.176Z,10.86
2022-10-17T20:43:28.357Z,10.68
2022-10-17T20:48:26.782Z,10.98
2022-10-17T20:53:35.974Z,10.84
2022-10-17T20:58:36.110Z,10.79
2022-10-17T21:03:42.342Z,10.61
2022-10-17T21:08:48.665Z,10.65
2022-10-17T21:13:49.710Z,10.45
2022-10-17T21:18:51.512Z,10.25
2022-10-17T21:23:52.691Z,10.30
2022-10-17T21:28:51.851Z,10.36
2022-10-17T21:33:56.478Z,10.39
2022-10-17T21:38:56.742Z,10.12
2022-10-17T21:44:07.837Z,10.22
2022-10-17T21:49:11.097Z,10.05
2022-10-17T21:54:12.024Z,9.96
2022-10-17T21:59:15.341Z,9.93
2022-10-17T22:04:18.482Z,9.93
2022-10-17T22:09:23.741Z,9.83
2022-10-17T22:14:24.997Z,9.73
2022-10-17T22:19:26.539Z,9.76
2022-10-17T22:24:28.597Z,9.49
2022-10-17T22:29:28.287Z,9.53
2022-10-17T22:34:32.486Z,9.28
2022-10-17T22:39:33.558Z,9.50
2022-10-17T22:44:33.613Z,9.31
2022-10-17T22:49:45.058Z,9.27
2022-10-17T22:54:53.244Z,9.37
2022-10-17T23:00:05.943Z,9.29
2022-10-17T23:05:10.670Z,9.32
2022-10-17T23:10:13.523Z,9.12
2022-10-17T23:15:12.420Z,9.40
2022-10-17T23:20:12.633Z,9.13
2022-10-17T23:25:14.397Z,9.34
2022-10-17T23:30:16.648Z,9.12
2022-10-17T23:35:19.580Z,9.03
2022-10-17T23:40:22.015Z,9.16
2022-10-17T23:45:24.294Z,9.27
2022-10-17T23:50:25.965Z,9.13
2022-10-17T23:55:27.139Z,9.05
